createdAt,value
2022-11-29T00:01:04.383Z,3.63
2022-11-29T00:05:06.628Z,8.40
2022-11-29T00:09:11.907Z,5.43
2022-11-29T00:13:14.087Z,8.43
2022-11-29T00:17:15.846Z,4.75
2022-11-29T00:21:17.495Z,5.75
2022-11-29T00:25:19.135Z,7.68
2022-11-29T00:29:20.833Z,6.05
2022-11-29T00:33:22.454Z,5.90
2022-11-29T00:37:24.107Z,6.20
2022-11-29T00:41:25.971Z,6.45
2022-11-29T00:45:28.082Z,6.03
2022-11-29T00:49:29.672Z,6.80
2022-11-29T00:53:31.976Z,4.88
2022-11-29T00:57:33.601Z,4.38
2022-11-29T01:01:35.317Z,5.57
2022-11-29T01:05:37.092Z,5.22
2022-11-29T01:09:38.730Z,5.03
2022-11-29T01:13:41.294Z,4.22
2022-11-29T01:17:43.232Z,5.30
2022-11-29T01:21:44.922Z,6.13
2022-11-29T01:25:46.574Z,4.75
2022-11-29T01:29:48.294Z,4.97
2022-11-29T01:33:54.797Z,6.82
2022-11-29T01:37:56.443Z,4.95
2022-11-29T01:41:58.191Z,4.93
2022-11-29T01:45:59.904Z,5.30
2022-11-29T01:50:03.401Z,4.75
2022-11-29T01:54:06.832Z,5.60
2022-11-29T01:58:09.098Z,5.13
2022-11-29T02:02:14.675Z,4.93
2022-11-29T02:06:16.509Z,6.32
2022-11-29T02:10:18.445Z,6.18
2022-11-29T02:14:31.751Z,5.38
2022-11-29T02:18:52.920Z,4.55
2022-11-29T02:23:16.130Z,5.55
2022-11-29T02:27:26.839Z,5.78
2022-11-29T02:31:37.786Z,7.20
2022-11-29T02:36:04.798Z,6.20
2022-11-29T02:40:34.921Z,7.10
2022-11-29T02:44:51.885Z,6.32
2022-11-29T02:49:07.309Z,5.00
2022-11-29T02:53:11.944Z,8.02
2022-11-29T02:57:37.652Z,7.22
2022-11-29T03:01:59.193Z,5.78
2022-11-29T03:06:12.202Z,6.70
2022-11-29T03:10:39.317Z,5.72
2022-11-29T03:15:01.991Z,6.47
2022-11-29T03:19:15.643Z,6.30
2022-11-29T03:23:34.209Z,8.30
2022-11-29T03:27:47.583Z,6.97
2022-11-29T03:31:58.117Z,7.20
2022-11-29T03:36:21.538Z,8.23
2022-11-29T03:40:31.925Z,5.90
2022-11-29T03:44:45.370Z,5.57
2022-11-29T03:48:56.235Z,8.15
2022-11-29T03:53:23.692Z,6.60
2022-11-29T03:57:34.213Z,7.13
2022-11-29T04:01:44.907Z,7.47
2022-11-29T04:06:07.232Z,5.38
2022-11-29T04:10:53.333Z,5.20
2022-11-29T04:15:15.851Z,7.38
2022-11-29T04:20:00.215Z,6.97
2022-11-29T04:24:38.993Z,6.15
2022-11-29T04:29:17.516Z,10.20
2022-11-29T04:33:22.137Z,8.02
2022-11-29T04:37:35.272Z,6.13
2022-11-29T04:42:01.392Z,6.15
2022-11-29T04:46:36.136Z,7.22
2022-11-29T04:50:52.771Z,6.43
2022-11-29T04:55:26.379Z,8.18
2022-11-29T04:59:51.895Z,8.85
2022-11-29T05:04:16.830Z,6.90
2022-11-29T05:08:42.195Z,6.28
2022-11-29T05:13:20.733Z,5.72
2022-11-29T05:17:55.734Z,7.75
2022-11-29T05:22:26.001Z,6.93
2022-11-29T05:26:53.592Z,6.63
2022-11-29T05:31:19.668Z,6.90
2022-11-29T05:35:50.379Z,8.50
2022-11-29T05:40:06.705Z,7.47
2022-11-29T05:44:12.018Z,7.00
2022-11-29T05:48:37.660Z,7.17
2022-11-29T05:52:54.197Z,6.88
2022-11-29T05:57:20.669Z,9.77
2022-11-29T06:01:24.508Z,6.20
2022-11-29T06:05:49.779Z,6.30
2022-11-29T06:10:01.852Z,5.97
2022-11-29T06:14:24.228Z,7.07
2022-11-29T06:18:46.442Z,8.38
2022-11-29T06:23:12.719Z,8.48
2022-11-29T06:27:36.393Z,8.80
2022-11-29T06:31:44.408Z,7.07
2022-11-29T06:36:13.256Z,7.60
2022-11-29T06:40:16.004Z,7.97
2022-11-29T06:44:18.025Z,6.63
2022-11-29T06:48:25.470Z,9.18
2022-11-29T06:52:49.639Z,7.75
2022-11-29T06:57:04.706Z,7.28
2022-11-29T07:01:32.221Z,7.13
2022-11-29T07:05:35.477Z,7.93
2022-11-29T07:09:37.223Z,6.55
2022-11-29T07:13:39.155Z,7.18
2022-11-29T07:17:59.079Z,7.50
2022-11-29T07:22:36.654Z,8.90
2022-11-29T07:26:59.803Z,9.07
2022-11-29T07:31:27.376Z,7.05
2022-11-29T07:35:50.501Z,8.65
2022-11-29T07:39:59.098Z,6.30
2022-11-29T07:44:32.178Z,6.78
2022-11-29T07:48:33.849Z,7.65
2022-11-29T07:52:35.636Z,6.78
2022-11-29T07:56:37.270Z,8.30
2022-11-29T08:00:39.720Z,6.88
2022-11-29T08:04:45.158Z,7.93
2022-11-29T08:08:47.030Z,8.98
2022-11-29T08:12:50.801Z,8.93
2022-11-29T08:16:52.461Z,7.88
2022-11-29T08:20:54.085Z,10.20
2022-11-29T08:24:55.849Z,9.85
2022-11-29T08:28:57.682Z,10.15
2022-11-29T08:32:59.434Z,12.63
2022-11-29T08:37:01.429Z,12.20
2022-11-29T08:41:04.741Z,12.02
2022-11-29T08:45:07.514Z,10.55
2022-11-29T08:49:09.106Z,10.35
2022-11-29T08:53:29.327Z,12.40
2022-11-29T08:57:39.990Z,13.57
2022-11-29T09:01:43.102Z,11.48
2022-11-29T09:05:44.929Z,14.52
2022-11-29T09:09:46.630Z,16.80
2022-11-29T09:13:50.920Z,10.80
2022-11-29T09:17:52.544Z,12.60
2022-11-29T09:21:54.861Z,13.27
2022-11-29T09:25:56.456Z,12.15
2022-11-29T09:29:58.040Z,10.90
2022-11-29T09:34:00.540Z,17.00
2022-11-29T09:38:02.145Z,10.35
2022-11-29T09:42:20.430Z,13.40
2022-11-29T09:46:22.071Z,12.23
2022-11-29T09:50:42.859Z,11.60
2022-11-29T09:54:44.675Z,11.80
2022-11-29T09:58:58.859Z,12.10
2022-11-29T10:03:19.700Z,12.38
2022-11-29T10:07:28.038Z,16.85
2022-11-29T10:11:41.167Z,13.43
2022-11-29T10:15:45.700Z,16.05
2022-11-29T10:19:52.888Z,10.35
2022-11-29T10:24:02.645Z,13.73
2022-11-29T10:28:06.650Z,12.77
2022-11-29T10:32:16.166Z,15.30
2022-11-29T10:36:40.421Z,11.52
2022-11-29T10:40:46.833Z,13.30
2022-11-29T10:44:48.436Z,17.13
2022-11-29T10:48:50.098Z,17.08
2022-11-29T10:52:58.585Z,12.13
2022-11-29T10:57:02.672Z,18.20
2022-11-29T11:01:07.373Z,11.85
2022-11-29T11:05:18.492Z,14.25
2022-11-29T11:09:35.617Z,13.73
2022-11-29T11:13:37.887Z,10.00
2022-11-29T11:17:42.138Z,11.02
2022-11-29T11:21:44.312Z,9.40
2022-11-29T11:25:50.001Z,11.98
2022-11-29T11:29:52.524Z,14.30
2022-11-29T11:33:54.352Z,13.27
2022-11-29T11:37:57.452Z,9.55
2022-11-29T11:42:17.967Z,12.73
2022-11-29T11:46:20.071Z,15.30
2022-11-29T11:50:36.036Z,12.32
2022-11-29T11:54:55.487Z,14.13
2022-11-29T11:58:58.002Z,10.82
2022-11-29T12:03:00.711Z,13.98
2022-11-29T12:07:05.607Z,13.18
2022-11-29T12:11:11.767Z,11.45
2022-11-29T12:19:34.634Z,13.20
2022-11-29T12:23:49.068Z,13.07
2022-11-29T12:27:51.190Z,16.98
2022-11-29T12:32:29.256Z,19.00
2022-11-29T12:36:44.636Z,18.95
2022-11-29T12:41:06.014Z,13.90
2022-11-29T12:45:26.631Z,16.17
2022-11-29T12:49:43.424Z,19.10
2022-11-29T12:54:09.488Z,16.73
2022-11-29T12:58:26.146Z,17.10
2022-11-29T13:02:55.054Z,14.30
2022-11-29T13:07:15.973Z,18.45
2022-11-29T13:11:34.952Z,20.33
2022-11-29T13:15:46.481Z,20.25
2022-11-29T13:19:56.743Z,17.73
2022-11-29T13:24:09.171Z,15.40
2022-11-29T13:28:30.378Z,20.42
2022-11-29T13:33:05.849Z,16.00
2022-11-29T13:37:38.226Z,18.48
2022-11-29T13:42:07.439Z,17.75
2022-11-29T13:46:30.120Z,17.42
2022-11-29T13:50:41.166Z,17.83
2022-11-29T13:54:42.908Z,19.58
2022-11-29T13:58:44.705Z,17.75
2022-11-29T14:02:46.461Z,18.13
2022-11-29T14:06:49.539Z,17.75
2022-11-29T14:10:53.665Z,18.15
2022-11-29T14:15:16.377Z,14.30
2022-11-29T14:19:34.473Z,19.95
2022-11-29T14:23:43.781Z,18.80
2022-11-29T14:27:53.121Z,16.83
2022-11-29T14:31:55.489Z,16.40
2022-11-29T14:36:07.526Z,16.60
2022-11-29T14:40:46.691Z,20.05
2022-11-29T14:44:50.849Z,15.20
2022-11-29T14:48:55.180Z,17.88
2022-11-29T14:52:57.017Z,20.50
2022-11-29T14:57:18.629Z,15.27
2022-11-29T15:01:21.303Z,20.10
2022-11-29T15:05:31.941Z,18.52
2022-11-29T15:09:34.882Z,20.15
2022-11-29T15:13:45.317Z,28.58
2022-11-29T15:18:00.897Z,25.42
2022-11-29T15:22:19.115Z,24.77
2022-11-29T15:26:21.574Z,22.33
2022-11-29T15:30:33.201Z,27.70
2022-11-29T15:34:37.873Z,24.63
2022-11-29T15:38:45.410Z,28.27
2022-11-29T15:42:47.193Z,25.33
2022-11-29T15:46:48.883Z,23.23
2022-11-29T15:51:11.346Z,26.88
2022-11-29T15:55:14.281Z,20.15
2022-11-29T15:59:40.832Z,21.60
2022-11-29T16:03:45.435Z,21.17
2022-11-29T16:07:52.441Z,21.90
2022-11-29T16:11:54.332Z,23.40
2022-11-29T16:16:19.472Z,22.55
2022-11-29T16:20:24.392Z,23.10
2022-11-29T16:24:26.461Z,18.95
2022-11-29T16:28:33.488Z,22.17
2022-11-29T16:32:42.825Z,18.05
2022-11-29T16:36:45.811Z,22.25
2022-11-29T16:41:06.349Z,19.17
2022-11-29T16:45:34.097Z,18.85
2022-11-29T16:49:36.579Z,19.20
2022-11-29T16:53:43.596Z,16.48
2022-11-29T16:57:47.172Z,27.13
2022-11-29T17:01:49.177Z,22.05
2022-11-29T17:05:51.311Z,15.88
2022-11-29T17:09:53.462Z,22.17
2022-11-29T17:13:55.087Z,20.52
2022-11-29T17:17:56.810Z,15.48
2022-11-29T17:21:58.971Z,19.83
2022-11-29T17:26:01.860Z,21.80
2022-11-29T17:30:05.709Z,24.77
2022-11-29T17:34:07.381Z,24.42
2022-11-29T17:38:08.990Z,21.73
2022-11-29T17:42:12.259Z,27.38
2022-11-29T17:46:26.311Z,25.20
2022-11-29T17:50:27.919Z,25.90
2022-11-29T17:54:32.894Z,24.98
2022-11-29T17:58:35.981Z,26.73
2022-11-29T18:02:37.768Z,28.83
2022-11-29T18:06:40.466Z,27.45
2022-11-29T18:10:42.089Z,31.15
2022-11-29T18:14:43.820Z,27.70
2022-11-29T18:18:46.033Z,33.33
2022-11-29T18:22:47.917Z,38.47
2022-11-29T18:26:49.572Z,35.33
2022-11-29T18:30:51.293Z,28.30
2022-11-29T18:34:52.912Z,30.48
2022-11-29T18:38:59.754Z,25.45
2022-11-29T18:43:01.397Z,26.65
2022-11-29T18:47:03.886Z,29.45
2022-11-29T18:51:11.315Z,30.10
2022-11-29T18:55:12.939Z,26.48
2022-11-29T18:59:17.140Z,28.83
2022-11-29T19:03:19.179Z,33.38
2022-11-29T19:07:20.859Z,25.85
2022-11-29T19:11:24.369Z,28.30
2022-11-29T19:15:26.198Z,29.25
2022-11-29T19:19:28.221Z,24.42
2022-11-29T19:23:29.862Z,30.17
2022-11-29T19:27:31.912Z,25.90
2022-11-29T19:31:33.529Z,27.40
2022-11-29T19:35:35.346Z,27.65
2022-11-29T19:39:38.059Z,31.25
2022-11-29T19:43:39.911Z,26.67
2022-11-29T19:47:41.614Z,24.20
2022-11-29T19:51:43.363Z,28.92
2022-11-29T19:55:45.096Z,25.27
2022-11-29T19:59:47.309Z,24.85
2022-11-29T20:03:49.911Z,31.98
2022-11-29T20:07:51.589Z,24.15
2022-11-29T20:11:53.280Z,21.83
2022-11-29T20:15:54.986Z,30.30
2022-11-29T20:19:56.789Z,22.83
2022-11-29T20:24:04.679Z,29.55
2022-11-29T20:28:06.811Z,28.48
2022-11-29T20:32:08.546Z,21.60
2022-11-29T20:36:31.417Z,20.05
2022-11-29T20:41:02.309Z,22.92
2022-11-29T20:45:07.819Z,21.00
2022-11-29T20:49:12.182Z,26.90
2022-11-29T20:53:31.769Z,25.25
2022-11-29T20:57:33.402Z,27.48
2022-11-29T21:01:35.276Z,24.42
2022-11-29T21:05:37.882Z,22.08
2022-11-29T21:09:39.484Z,23.05
2022-11-29T21:13:41.526Z,22.85
2022-11-29T21:17:44.123Z,25.08
2022-11-29T21:22:05.124Z,181.73
2022-11-29T21:26:20.724Z,99.57
2022-11-29T21:30:24.851Z,97.50
2022-11-29T21:34:26.457Z,89.13
2022-11-29T21:38:29.309Z,77.13
2022-11-29T21:42:30.923Z,78.22
2022-11-29T21:46:32.564Z,68.50
2022-11-29T21:50:34.174Z,53.88
2022-11-29T21:54:35.761Z,69.22
2022-11-29T21:58:39.289Z,45.90
2022-11-29T22:02:41.058Z,43.83
2022-11-29T22:06:42.932Z,40.58
2022-11-29T22:10:44.512Z,52.33
2022-11-29T22:14:46.449Z,43.13
2022-11-29T22:18:48.307Z,39.25
2022-11-29T22:22:51.102Z,41.03
2022-11-29T22:26:55.753Z,33.65
2022-11-29T22:31:11.551Z,36.80
2022-11-29T22:35:13.217Z,31.35
2022-11-29T22:39:15.007Z,37.05
2022-11-29T22:43:16.645Z,34.38
2022-11-29T22:47:18.332Z,27.77
2022-11-29T22:51:41.248Z,22.92
2022-11-29T22:55:43.441Z,30.02
2022-11-29T22:59:45.049Z,29.30
2022-11-29T23:03:49.130Z,30.42
2022-11-29T23:07:55.091Z,22.90
2022-11-29T23:11:56.771Z,26.58
2022-11-29T23:15:58.390Z,23.42
2022-11-29T23:20:00.098Z,24.13
2022-11-29T23:24:02.269Z,32.22
2022-11-29T23:28:03.951Z,25.80
2022-11-29T23:32:05.597Z,21.65
2022-11-29T23:36:09.170Z,21.08
2022-11-29T23:40:11.140Z,22.52
2022-11-29T23:44:12.803Z,22.90
2022-11-29T23:48:14.700Z,26.10
2022-11-29T23:52:16.335Z,22.08
2022-11-29T23:56:18.056Z,19.90
